createdAt,value
2018-04-06T00:00:02.716Z,1022.04
2018-04-06T00:05:03.372Z,1022.05
2018-04-06T00:10:03.032Z,1022.16
2018-04-06T00:15:03.608Z,1022.13
2018-04-06T00:20:03.207Z,1022.17
2018-04-06T00:25:02.783Z,1022.11
2018-04-06T00:30:03.452Z,1022.14
2018-04-06T00:35:02.999Z,1022.07
2018-04-06T00:40:03.608Z,1022.05
2018-04-06T00:45:03.183Z,1022.08
2018-04-06T00:50:02.817Z,1022.06
2018-04-06T00:55:03.564Z,1022.13
2018-04-06T01:00:03.168Z,1022.14
2018-04-06T01:05:02.727Z,1022.08
2018-04-06T01:10:03.356Z,1022.04
2018-04-06T01:15:02.925Z,1021.98
2018-04-06T01:20:03.562Z,1022.03
2018-04-06T01:25:03.222Z,1022.05
2018-04-06T01:30:02.837Z,1022.08
2018-04-06T01:35:03.415Z,1022.05
2018-04-06T01:40:03.013Z,1021.97
2018-04-06T01:45:03.684Z,1021.93
2018-04-06T01:50:03.312Z,1021.92
2018-04-06T01:55:02.922Z,1021.88
2018-04-06T02:00:03.517Z,1021.91
2018-04-06T02:05:03.084Z,1021.87
2018-04-06T02:10:03.663Z,1021.85
2018-04-06T02:15:03.247Z,1021.86
2018-04-06T02:20:02.851Z,1021.88
2018-04-06T02:25:03.419Z,1021.84
2018-04-06T02:30:03.136Z,1021.79
2018-04-06T02:35:02.767Z,1021.75
2018-04-06T02:40:03.392Z,1021.79
2018-04-06T02:45:02.967Z,1021.79
2018-04-06T02:50:03.595Z,1021.77
2018-04-06T02:55:03.135Z,1021.8
2018-04-06T03:00:02.747Z,1021.83
2018-04-06T03:05:03.624Z,1021.79
2018-04-06T03:10:03.368Z,1021.79
2018-04-06T03:15:02.942Z,1021.7
2018-04-06T03:20:03.560Z,1021.79
2018-04-06T03:25:03.155Z,1021.72
2018-04-06T03:30:02.854Z,1021.73
2018-04-06T03:35:03.507Z,1021.75
2018-04-06T03:40:03.128Z,1021.78
2018-04-06T03:45:02.724Z,1021.85
2018-04-06T03:50:03.262Z,1021.84
2018-04-06T03:55:02.823Z,1021.79
2018-04-06T04:00:03.434Z,1021.87
2018-04-06T04:05:03.116Z,1021.82
2018-04-06T04:10:03.721Z,1021.82
2018-04-06T04:15:03.364Z,1021.8
2018-04-06T04:20:02.932Z,1021.71
2018-04-06T04:25:03.473Z,1021.72
2018-04-06T04:30:03.172Z,1021.74
2018-04-06T04:35:02.768Z,1021.7
2018-04-06T04:40:03.439Z,1021.64
2018-04-06T04:45:02.938Z,1021.5
2018-04-06T04:50:03.503Z,1021.5
2018-04-06T04:55:03.068Z,1021.39
2018-04-06T05:00:02.743Z,1021.41
2018-04-06T05:05:03.280Z,1021.43
2018-04-06T05:10:02.988Z,1021.39
2018-04-06T05:15:03.819Z,1021.37
2018-04-06T05:20:03.387Z,1021.41
2018-04-06T05:25:02.913Z,1021.41
2018-04-06T05:30:03.552Z,1021.53
2018-04-06T05:35:03.179Z,1021.66
2018-04-06T05:40:02.856Z,1021.56
2018-04-06T05:45:03.490Z,1021.48
2018-04-06T05:50:03.164Z,1021.46
2018-04-06T05:55:02.790Z,1021.53
2018-04-06T06:00:03.388Z,1021.38
2018-04-06T06:05:02.966Z,1021.3
2018-04-06T06:10:03.663Z,1021.25
2018-04-06T06:15:03.306Z,1021.26
2018-04-06T06:20:02.876Z,1021.27
2018-04-06T06:25:03.546Z,1021.26
2018-04-06T06:30:03.183Z,1021.34
2018-04-06T06:35:02.811Z,1021.27
2018-04-06T06:40:03.510Z,1021.25
2018-04-06T06:45:03.079Z,1021.23
2018-04-06T06:50:03.632Z,1021.19
2018-04-06T06:55:03.289Z,1021.21
2018-04-06T07:00:03.005Z,1021.18
2018-04-06T07:05:03.660Z,1021.08
2018-04-06T07:10:03.314Z,1021.16
2018-04-06T07:15:02.895Z,1021.11
2018-04-06T07:20:03.591Z,1021.14
2018-04-06T07:25:03.218Z,1021.14
2018-04-06T07:30:03.155Z,1021.03
2018-04-06T07:35:02.796Z,1021.02
2018-04-06T07:40:03.419Z,1020.94
2018-04-06T07:45:02.958Z,1021.02
2018-04-06T07:50:03.613Z,1021
2018-04-06T07:55:03.276Z,1021.06
2018-04-06T08:00:02.937Z,1021.03
2018-04-06T08:05:03.579Z,1021.14
2018-04-06T08:10:03.319Z,1021.02
2018-04-06T08:15:03.058Z,1021.06
2018-04-06T08:20:03.677Z,1021.04
2018-04-06T08:25:03.333Z,1020.93
2018-04-06T08:30:02.950Z,1020.88
2018-04-06T08:35:03.674Z,1020.9
2018-04-06T08:40:03.323Z,1020.93
2018-04-06T08:45:03.002Z,1020.8
2018-04-06T08:50:03.621Z,1020.7
2018-04-06T08:55:03.300Z,1020.65
2018-04-06T09:00:02.936Z,1020.56
2018-04-06T09:05:03.590Z,1020.47
2018-04-06T09:10:03.258Z,1020.38
2018-04-06T09:15:03.226Z,1020.34
2018-04-06T09:20:02.837Z,1020.41
2018-04-06T09:25:03.497Z,1020.38
2018-04-06T09:30:03.460Z,1020.31
2018-04-06T09:35:03.168Z,1020.21
2018-04-06T09:40:02.929Z,1020.36
2018-04-06T09:45:03.572Z,1020.05
2018-04-06T09:50:03.312Z,1019.99
2018-04-06T09:55:03.005Z,1019.86
2018-04-06T10:00:03.738Z,1019.82
2018-04-06T10:05:03.329Z,1019.76
2018-04-06T10:10:03.034Z,1019.62
2018-04-06T10:15:03.615Z,1019.68
2018-04-06T10:20:03.267Z,1019.59
2018-04-06T10:25:02.921Z,1019.5
2018-04-06T10:30:03.525Z,1019.47
2018-04-06T10:35:03.175Z,1019.42
2018-04-06T10:40:02.813Z,1019.4
2018-04-06T10:45:03.388Z,1019.45
2018-04-06T10:50:02.987Z,1019.42
2018-04-06T10:55:03.451Z,1019.36
2018-04-06T11:00:03.084Z,1019.42
2018-04-06T11:05:03.694Z,1019.22
2018-04-06T11:10:03.437Z,1019.14
2018-04-06T11:15:03.060Z,1018.97
2018-04-06T11:20:03.666Z,1018.95
2018-04-06T11:25:03.280Z,1018.91
2018-04-06T11:30:03.158Z,1018.88
2018-04-06T11:35:02.787Z,1018.7
2018-04-06T11:40:03.615Z,1018.54
2018-04-06T11:45:03.189Z,1018.41
2018-04-06T11:50:02.880Z,1018.34
2018-04-06T11:55:03.476Z,1018.27
2018-04-06T12:00:03.137Z,1018.22
2018-04-06T12:05:02.822Z,1018.1
2018-04-06T12:10:03.546Z,1018.04
2018-04-06T12:15:03.128Z,1017.93
2018-04-06T12:20:02.828Z,1017.79
2018-04-06T12:25:03.662Z,1017.54
2018-04-06T12:30:03.288Z,1017.42
2018-04-06T12:35:02.902Z,1017.29
2018-04-06T12:40:03.549Z,1017.26
2018-04-06T12:45:03.181Z,1017.24
2018-04-06T12:50:02.713Z,1017.12
2018-04-06T12:55:03.359Z,1017.04
2018-04-06T13:00:02.967Z,1016.99
2018-04-06T13:05:03.585Z,1016.83
2018-04-06T13:10:03.198Z,1016.54
2018-04-06T13:15:02.742Z,1016.57
2018-04-06T13:20:02.720Z,1016.44
2018-04-06T13:25:03.349Z,1016.36
2018-04-06T13:30:02.827Z,1016.33
2018-04-06T13:35:03.533Z,1016.38
2018-04-06T13:40:03.361Z,1016.15
2018-04-06T13:45:02.888Z,1016.13
2018-04-06T13:50:03.493Z,1016.19
2018-04-06T13:55:03.188Z,1015.88
2018-04-06T14:00:03.019Z,1015.82
2018-04-06T14:05:03.596Z,1015.69
2018-04-06T14:10:03.348Z,1015.63
2018-04-06T14:15:03.018Z,1015.55
2018-04-06T14:20:03.687Z,1015.58
2018-04-06T14:25:03.325Z,1015.43
2018-04-06T14:30:02.951Z,1015.46
2018-04-06T14:35:03.665Z,1015.28
2018-04-06T14:40:03.408Z,1015.16
2018-04-06T14:45:02.975Z,1015.05
2018-04-06T14:50:03.567Z,1015.08
2018-04-06T14:55:03.186Z,1015.03
2018-04-06T15:00:02.786Z,1014.87
2018-04-06T15:05:03.406Z,1014.82
2018-04-06T15:10:03.128Z,1014.8
2018-04-06T15:15:02.791Z,1014.56
2018-04-06T15:20:03.454Z,1014.6
2018-04-06T15:25:03.010Z,1014.5
2018-04-06T15:30:03.570Z,1014.49
2018-04-06T15:35:03.215Z,1014.42
2018-04-06T15:40:02.886Z,1014.41
2018-04-06T15:45:03.509Z,1014.44
2018-04-06T15:50:03.145Z,1014.4
2018-04-06T15:55:02.873Z,1014.4
2018-04-06T16:00:03.446Z,1014.39
2018-04-06T16:05:03.084Z,1014.33
2018-04-06T16:10:02.749Z,1014.32
2018-04-06T16:15:03.291Z,1014.24
2018-04-06T16:20:03.028Z,1014.18
2018-04-06T16:25:03.606Z,1014.11
2018-04-06T16:30:03.146Z,1014.09
2018-04-06T16:35:02.891Z,1014.13
2018-04-06T16:40:03.586Z,1013.99
2018-04-06T16:45:03.144Z,1013.98
2018-04-06T16:50:02.756Z,1013.99
2018-04-06T16:55:03.456Z,1014
2018-04-06T17:00:03.138Z,1013.9
2018-04-06T17:05:02.796Z,1013.92
2018-04-06T17:10:03.425Z,1013.87
2018-04-06T17:15:02.988Z,1013.92
2018-04-06T17:20:03.658Z,1013.82
2018-04-06T17:25:03.337Z,1013.87
2018-04-06T17:30:03.364Z,1013.88
2018-04-06T17:35:03.026Z,1013.79
2018-04-06T17:40:02.784Z,1013.78
2018-04-06T17:45:03.413Z,1013.77
2018-04-06T17:50:03.140Z,1013.79
2018-04-06T17:55:02.699Z,1013.77
2018-04-06T18:00:03.378Z,1013.72
2018-04-06T18:05:03.090Z,1013.7
2018-04-06T18:10:02.700Z,1013.69
2018-04-06T18:15:03.350Z,1013.68
2018-04-06T18:20:02.949Z,1013.81
2018-04-06T18:25:03.537Z,1013.78
2018-04-06T18:30:03.168Z,1013.78
2018-04-06T18:35:02.781Z,1013.77
2018-04-06T18:40:03.424Z,1013.75
2018-04-06T18:45:03.028Z,1013.76
2018-04-06T18:50:03.546Z,1013.8
2018-04-06T18:55:03.187Z,1013.79
2018-04-06T19:00:02.782Z,1013.78
2018-04-06T19:05:03.359Z,1013.67
2018-04-06T19:10:03.033Z,1013.64
2018-04-06T19:15:03.651Z,1013.66
2018-04-06T19:20:03.301Z,1013.59
2018-04-06T19:25:02.982Z,1013.63
2018-04-06T19:30:03.564Z,1013.51
2018-04-06T19:35:03.176Z,1013.43
2018-04-06T19:40:02.868Z,1013.46
2018-04-06T19:45:03.435Z,1013.42
2018-04-06T19:50:03.123Z,1013.28
2018-04-06T19:55:03.090Z,1013.33
2018-04-06T20:00:02.859Z,1013.29
2018-04-06T20:05:03.527Z,1013.2
2018-04-06T20:10:03.232Z,1013.21
2018-04-06T20:15:02.940Z,1013.18
2018-04-06T20:20:03.588Z,1013.19
2018-04-06T20:25:03.167Z,1013.03
2018-04-06T20:30:02.871Z,1012.97
2018-04-06T20:35:03.601Z,1013.04
2018-04-06T20:40:03.345Z,1013.03
2018-04-06T20:45:03.052Z,1012.95
2018-04-06T20:50:03.697Z,1012.85
2018-04-06T20:55:03.343Z,1012.78
2018-04-06T21:00:03.009Z,1012.62
2018-04-06T21:05:03.657Z,1012.62
2018-04-06T21:10:03.333Z,1012.6
2018-04-06T21:15:03.054Z,1012.55
2018-04-06T21:20:02.736Z,1012.42
2018-04-06T21:25:03.408Z,1012.44
2018-04-06T21:30:03.438Z,1012.47
2018-04-06T21:35:03.055Z,1012.51
2018-04-06T21:40:03.724Z,1012.48
2018-04-06T21:45:03.417Z,1012.59
2018-04-06T21:50:03.186Z,1012.49
2018-04-06T21:55:02.798Z,1012.49
2018-04-06T22:00:03.440Z,1012.47
2018-04-06T22:05:03.108Z,1012.39
2018-04-06T22:10:02.758Z,1012.25
2018-04-06T22:15:03.334Z,1012.33
2018-04-06T22:20:03.014Z,1012.29
2018-04-06T22:25:03.594Z,1012.13
2018-04-06T22:30:03.149Z,1012.11
2018-04-06T22:35:02.727Z,1012.08
2018-04-06T22:40:03.384Z,1012.02
2018-04-06T22:45:02.986Z,1011.95
2018-04-06T22:50:03.629Z,1011.89
2018-04-06T22:55:03.259Z,1011.84
2018-04-06T23:00:05.063Z,1011.81
2018-04-06T23:05:03.552Z,1011.87
2018-04-06T23:10:03.255Z,1011.88
2018-04-06T23:15:02.941Z,1011.97
2018-04-06T23:20:03.568Z,1012.05
2018-04-06T23:25:03.137Z,1012.07
2018-04-06T23:30:02.746Z,1012.09
2018-04-06T23:35:03.575Z,1012.1
2018-04-06T23:40:03.231Z,1012.16
2018-04-06T23:45:03.159Z,1012.22
2018-04-06T23:50:02.729Z,1012.2
2018-04-06T23:55:03.382Z,1012.16
